Kingston, Louisiana
Current Conditions -  °F | °C
As of 2:56 PM on Thursday 18 Dec 2014 (Local Time) from KSHV Reporting Station
Overcast Overcast  
Wind Chill: 52°   Ceiling: 1100
Heat Index: 52°   Visibility: 7mi
Dew Point: 46°   Wind: 3mph
Humidity: 80%   Direction: 40°NE
Pressure: 30.11"   Gusts: NA
Location:  32.117°N, 93.8044°W
Report Text: KSHV 182056Z 04003KT 7SM OVC011 11/08 A3011 RMK AO2 SLP196 T01110078 58012
Loading
Personal Weather Stations






























Interactive Weather Map New forecast layout! Learn more

10-Day Weather Forecast

Advertisements
Track Severe Weather on mobile